Goldfield, Nevada Weather observations

Data are for observation ending at time listed.
 Day   Time    Ave.   Ave.  Ave.  Vector   Max.   Stn.    Total    Solar   Ave.  
  of    of     Air    Rel.  Wind   Wind    Wind   Baro.  Precip.   Rad.    Soil  
Year   Day     Temp.  Hum.  Speed  Dir.    Gust   Pres.                    Temp. 
2022   (PST)    F      %     mph   deg.    mph     mb.     in.     W/m2     F   
------------------------------------------------------------------------------
  18   21:10   34.2    63    0.4   228      1.7   830.0    0.00       0    32.8
  18   21:20   33.7    64    1.0   144      2.9   830.0    0.00       0    33.3
  18   21:30   33.4    65    1.0   148      2.7   830.0    0.00       0    32.9
  18   21:40   33.2    65    0.1   141      0.9   830.0    0.00       0    33.1
  18   21:50   31.9    68    2.3   148      4.2   830.0    0.00       0    33.3
  18   22:00   33.1    65    2.9   157      4.0   830.1    0.00       0    33.0
  18   22:10   33.2    65    1.1   188      2.7   830.2    0.00       0    32.9
  18   22:20   32.3    67    1.6   197      3.1   830.2    0.00       0    32.9
  18   22:30   32.7    66    0.5   201      1.5   830.2    0.00       0    32.9
  18   22:40   32.3    66    1.4   161      2.9   830.1    0.00       0    32.9
  18   22:50   31.9    67    1.8   200      2.3   830.0    0.00       0    32.8
  18   23:00   31.7    67    2.5   260      4.6   830.2    0.00       0    33.0
  18   23:10   32.2    66    2.4   283      3.9   830.4    0.00       0    33.0
  18   23:20   32.2    66    1.0   294      2.9   830.5    0.00       0    32.9
  18   23:30   31.3    68    0.0    63      0.2   830.6    0.00       0    32.8
  18   23:40   30.2    70    0.1   194      1.5   830.7    0.00       0    33.0
  18   23:50   30.1    71    1.1   245      1.9   830.7    0.00       0    32.8
  19    0:00   31.6    67    0.0   269      0.9   830.6    0.00       0    32.8
  19    0:10   31.2    68    0.3   262      1.0   830.6    0.00       0    32.7
  19    0:20   30.6    69    0.4   171      1.4   830.5    0.00       0    32.6
  19    0:30   31.2    68    0.0     0      0.0   830.5    0.00       0    32.6
  19    0:40   30.4    69    0.0     0      0.0   830.5    0.00       0    32.6
  19    0:50   29.5    72    0.0   129      0.2   830.6    0.00       0    32.7
  19    1:00   29.1    73    0.0   273      0.8   830.7    0.00       0    32.6
  19    1:10   29.7    71    0.0    51      0.7   830.5    0.00       0    32.6
  19    1:20   29.2    72    0.0    82      0.7   830.4    0.00       0    32.8
  19    1:30   28.7    74    0.2   247      1.5   830.5    0.00       0    32.6
  19    1:40   29.1    74    0.7   264      2.9   830.6    0.00       0    32.7
  19    1:50   29.9    72    1.7   274      3.8   830.7    0.00       0    32.7
  19    2:00   30.2    72    2.7   295      4.1   830.8    0.00       0    32.5
  19    2:10   30.0    72    1.9   308      4.7   830.8    0.00       0    32.6
  19    2:20   29.5    72    0.2   289      1.9   830.9    0.00       0    32.5
  19    2:30   29.7    71    2.0   313      4.0   831.0    0.00       0    32.4
  19    2:40   30.6    68    1.8   358      3.6   831.1    0.00       0    32.5
  19    2:50   30.1    69    0.7   217      2.0   831.1    0.00       0    32.4
  19    3:00   29.4    71    0.1   241      1.5   831.2    0.00       0    32.2
  19    3:10   28.8    72    0.4   221      1.7   831.1    0.00       0    32.4
  19    3:20   29.5    69    2.0   274      3.4   831.1    0.00       0    32.5
  19    3:30   30.8    65    1.8   306      4.5   831.1    0.00       0    32.5
  19    3:40   30.3    66    1.7   318      2.9   831.1    0.00       0    32.4
  19    3:50   29.6    67    1.8   296      2.7   831.2    0.00       0    32.3
  19    4:00   29.4    68    3.0   305      4.9   831.1    0.00       0    32.4
  19    4:10   29.4    68    2.2   302      4.4   831.1    0.00       0    32.4
  19    4:20   29.1    68    2.6   314      4.3   831.2    0.00       0    32.4
  19    4:30   28.4    71    2.0   315      4.0   831.2    0.00       0    32.4
  19    4:40   28.9    71    2.4   293      4.1   831.2    0.00       0    32.3
  19    4:50   29.1    70    2.7   311      4.6   831.3    0.00       0    32.3
  19    5:00   29.1    70    2.0   305      3.7   831.3    0.00       0    32.2
  19    5:10   29.2    70    1.4   298      3.4   831.4    0.00       0    32.3
  19    5:20   29.3    70    0.2   302      1.9   831.4    0.00       0    32.4
  19    5:30   29.2    71    0.3   283      1.8   831.3    0.00       0    32.1
  19    5:40   29.0    71    0.2   270      2.0   831.3    0.00       0    32.3
  19    5:50   28.6    72    1.0   271      2.2   831.3    0.00       0    32.1
  19    6:00   28.9    72    1.0   275      1.9   831.5    0.00       0    32.2
  19    6:10   28.5    72    0.8   273      1.8   831.5    0.00       0    32.4
  19    6:20   28.5    72    0.7   255      2.2   831.6    0.00       0    32.2
  19    6:30   27.7    73    0.6    52      2.7   831.7    0.00       0    32.1
  19    6:40   27.2    75    1.1    88      2.6   831.8    0.00       0    32.1
  19    6:50   27.4    75    2.0   161      3.1   831.9    0.00       0    32.1
  19    7:00   27.7    74    1.9   149      3.1   832.0    0.00       4    32.0
  19    7:10   27.9    74    2.3   155      3.3   832.2    0.00       9    31.9
  19    7:20   28.8    72    1.0   149      2.3   832.3    0.00      20    32.0
  19    7:30   28.5    72    0.1   122      1.1   832.5    0.00      37    31.8
  19    7:40   29.0    72    0.0     0      0.0   832.6    0.00      63    32.0
  19    7:50   30.2    70    0.7   247      2.9   832.7    0.00      99    32.1
  19    8:00   31.1    68    1.2   272      2.8   832.9    0.00     132    32.0
  19    8:10   32.0    67    1.4   339      3.4   833.0    0.00     161    32.1
  19    8:20   32.0    68    0.6    36      2.3   833.2    0.00     177    32.0
  19    8:30   33.2    65    1.6    30      3.5   833.3    0.00     215    32.0
  19    8:40   35.5    60    1.5   351      3.6   833.6    0.00     245    32.0
  19    8:50   36.2    60    4.1   338      8.3   833.7    0.00     273    32.0
  19    9:00   35.5    60    4.6   338      7.7   833.8    0.00     299    32.1
  19    9:10   36.3    59    3.4   344      7.0   834.0    0.00     323    31.9
  19    9:20   37.4    58    3.8   349      7.5   834.1    0.00     246    32.0
  19    9:30   37.6    56    7.2   336     11.5   834.2    0.00     178    32.1
  19    9:40   37.8    55    7.0   343     10.1   834.3    0.00     396    31.9
  19    9:50   37.9    55    6.5   347     10.2   834.5    0.00     417    32.2
  19   10:00   38.9    54    8.1   338     11.8   834.5    0.00     435    32.1
  19   10:10   38.9    54    8.0   342     11.3   834.5    0.00     453    32.0
  19   10:20   39.6    53    6.6   346     11.1   834.6    0.00     470    32.2
  19   10:30   39.8    52    6.6   348     11.1   834.6    0.00     485    32.0
  19   10:40   40.5    51    7.8   339     12.5   834.6    0.00     498    32.1
  19   10:50   41.3    50    7.4   339     12.3   834.5    0.00     509    32.0
  19   11:00   42.1    49    6.9   346     10.6   834.4    0.00     520    32.2
  19   11:10   42.6    48    6.4   344     11.4   834.3    0.00     528    32.0
  19   11:20   43.3    46    6.2   356      9.9   834.2    0.00     537    32.1
  19   11:30   43.6    46    7.7   347     11.8   834.1    0.00     542    32.4
  19   11:40   44.2    45    7.8   353     12.3   833.9    0.00     547    32.0
  19   11:50   44.5    45    9.9   344     14.5   833.8    0.00     547    32.4
  19   12:00   44.8    44   10.2   346     17.1   833.7    0.00     547    32.1
  19   12:10   45.3    42   11.3   333     16.1   833.6    0.00     546    32.3
  19   12:20   45.8    42   10.4   324     16.1   833.6    0.00     545    32.5
  19   12:30   45.6    42   11.9   330     17.1   833.6    0.00     538    32.3
  19   12:40   45.8    41   12.2   328     18.6   833.4    0.00     532    32.1
  19   12:50   46.1    41   12.4   326     17.2   833.3    0.00     525    32.2
  19   13:00   46.5    40   14.1   320     20.1   833.3    0.00     515    32.0
  19   13:10   46.4    41   12.3   317     20.6   833.2    0.00     505    32.2
  19   13:20   47.1    40   12.6   315     18.4   833.2    0.00     490    32.2
  19   13:30   47.2    41   13.2   308     21.9   833.1    0.00     476    32.4
  19   13:40   47.2    40   14.0   309     21.3   833.3    0.00     461    31.9
  19   13:50   47.2    41   14.4   310     20.4   833.2    0.00     443    32.2
  19   14:00   47.4    41   13.3   311     20.5   833.2    0.00     424    32.4
  19   14:10   47.3    40   14.0   306     19.6   833.1    0.00     407    32.3
  19   14:20   47.2    39   14.7   327     21.3   833.2    0.00     380    32.4
  19   14:30   47.2    39   13.1   327     19.4   833.2    0.00     358    32.5
  19   14:40   47.2    39   15.3   323     21.3   833.2    0.00     332    32.5
  19   14:50   47.4    38   14.4   322     21.2   833.2    0.00     310    32.4
  19   15:00   47.4    38   13.4   326     20.2   833.2    0.00     282    32.6
  19   15:10   47.2    38   12.8   327     18.7   833.3    0.00     254    32.6
  19   15:20   47.0    38   13.4   331     18.6   833.2    0.00     229    32.8
  19   15:30   47.0    38   12.9   327     19.1   833.3    0.00     198    32.7
  19   15:40   46.4    39   13.0   333     17.0   833.3    0.00     166    32.7
  19   15:50   46.0    40   12.6   336     17.8   833.3    0.00     142    32.7
  19   16:00   45.7    40   12.4   334     18.1   833.3    0.00     114    32.9
  19   16:10   45.7    40    9.9   332     15.5   833.3    0.00      83    32.8
  19   16:20   45.1    41    9.4   332     14.2   833.3    0.00      26    32.9
  19   16:30   43.8    44    9.2   328     14.0   833.3    0.00      15    33.0
  19   16:40   42.9    46   10.6   326     14.5   833.4    0.00      15    33.0
  19   16:50   41.8    48    9.4   321     14.2   833.5    0.00      10    33.0
  19   17:00   40.7    49    6.9   312      9.2   833.6    0.00       7    33.1
  19   17:10   39.3    52    6.9   300      9.9   833.7    0.00       3    33.1
  19   17:20   38.7    52    7.9   305     10.2   833.9    0.00       0    33.1
  19   17:30   38.3    52    7.1   309      9.8   834.1    0.00       0    33.3
  19   17:40   38.0    53    6.0   314      8.3   834.3    0.00       0    33.2
  19   17:50   37.8    53    5.8   301      9.3   834.4    0.00       0    33.2
  19   18:00   37.8    53    6.4   294      8.9   834.5    0.00       0    33.3
  19   18:10   38.2    52    7.7   297     11.7   834.5    0.00       0    33.0
  19   18:20   38.2    52    7.5   301     10.5   834.6    0.00       0    33.2
  19   18:30   37.9    53    7.1   303     10.7   834.7    0.00       0    33.0
  19   18:40   37.4    54    5.9   307      9.3   834.9    0.00       0    33.0
  19   18:50   36.7    56    6.2   306      9.6   835.0    0.00       0    33.2
  19   19:00   36.3    57    5.9   305      8.2   835.2    0.00       0    33.0
  19   19:10   35.9    58    6.2   302     10.0   835.3    0.00       0    33.4
  19   19:20   35.8    59    6.9   308     10.5   835.4    0.00       0    33.1
  19   19:30   36.6    58    8.6   313     12.6   835.4    0.00       0    32.9
  19   19:40   36.7    59    8.1   310     12.5   835.4    0.00       0    33.4
  19   19:50   37.4    58    8.3   322     13.2   835.5    0.00       0    33.3
  19   20:00   37.5    58    6.0   316      9.6   835.5    0.00       0    32.9
  19   20:10   36.8    60    3.8   297      7.0   835.7    0.00       0    33.3
  19   20:20   36.6    60    3.3   331      5.8   835.8    0.00       0    33.3
  19   20:30   36.8    59    0.8    30      3.1   835.9    0.00       0    33.2
  19   20:40   36.1    61    2.6   311      4.4   835.9    0.00       0    33.4
  19   20:50   35.0    64    4.1   316      6.1   836.0    0.00       0    33.0
  19   21:00   33.5    67    5.4   310      7.1   836.1    0.00       0    32.7

Return to Goldfield, Nevada graphs page.


Western Regional Climate Center,wrcc@dri.edu